»·PEaware :: N513DS KSBP-KSMX

N513DS :: KSBP-KSMX

FLIGHT INFORMATION

Flight Status: Arrived
Operator: Privately registered:
United States
More flights under this callsign
Pilot: Matt P. (36504)
Aircraft: Diamond DA-40
(DA40)
More flights by this aircraft type
Origin: KSBP San Luis Co Regl
United States
Destination: KSMX Santa Maria Pub/Capt Hancock
United States
More flights between these airports :: More routes between these airports
Route: L52 GLJ
File this flight plan on PilotEdge
Remarks:
Altitude:
(Current/Filed)
2,500ft
Speed:
(Current/Filed)
131kts
Departed: 15-Jan-22 04:10 PM
Arrived: 15-Jan-22 04:27 PM
Distance/Time
Traveled:
22nm/0:17
Distance/Time
To Go:
Arrived

Flight Plot

Page will automatically refresh every two minutes.

Flight plan parsing failed; only flown route is shown


Map Options




Map Legend


Flown Route
Filed Route
Departure Airport
Arrival Airport
Navaid (VOR, NDB)
Fix

Horizontal Profiles

Position Reports

Time Latitude Longitude Heading Altitude Ground
Speed
15-Jan-22 15:35 35.241203 -120.645256 128 215ft 0kts
15-Jan-22 15:36 35.241203 -120.645256 128 215ft 0kts
15-Jan-22 15:37 35.241203 -120.645256 128 215ft 0kts
15-Jan-22 15:38 35.241203 -120.645256 128 215ft 0kts
15-Jan-22 15:39 35.241203 -120.645256 128 215ft 0kts
15-Jan-22 15:40 35.241203 -120.645256 128 215ft 0kts
15-Jan-22 15:41 35.241203 -120.645256 128 215ft 0kts
15-Jan-22 15:42 35.241203 -120.645256 128 215ft 0kts
15-Jan-22 15:43 35.241203 -120.645256 128 215ft 0kts
15-Jan-22 15:44 35.241203 -120.645256 128 215ft 0kts
15-Jan-22 15:45 35.241203 -120.645256 128 215ft 0kts
15-Jan-22 15:46 35.241203 -120.645256 128 215ft 0kts
15-Jan-22 15:47 35.241203 -120.645256 128 215ft 0kts
15-Jan-22 15:48 35.241203 -120.645256 128 215ft 0kts
15-Jan-22 15:49 35.241203 -120.645256 128 215ft 0kts
15-Jan-22 15:50 35.241203 -120.645256 128 215ft 0kts
15-Jan-22 15:51 35.241203 -120.645256 128 215ft 0kts
15-Jan-22 15:52 35.241203 -120.645256 128 215ft 0kts
15-Jan-22 15:53 35.241203 -120.645256 128 215ft 0kts
15-Jan-22 15:56 35.241203 -120.645256 129 215ft 0kts
15-Jan-22 15:57 35.241203 -120.645256 129 215ft 0kts
15-Jan-22 15:58 35.240855 -120.644812 128 215ft 6kts
15-Jan-22 15:59 35.238820 -120.641899 123 215ft 14kts
15-Jan-22 16:00 35.236287 -120.637261 125 215ft 17kts
15-Jan-22 16:01 35.233438 -120.632250 129 215ft 17kts
15-Jan-22 16:02 35.233188 -120.631998 206 215ft 0kts
15-Jan-22 16:03 35.233188 -120.631998 206 215ft 0kts
15-Jan-22 16:04 35.233188 -120.631998 206 215ft 0kts
15-Jan-22 16:05 35.233180 -120.632003 204 215ft 0kts
15-Jan-22 16:06 35.233180 -120.632003 204 215ft 0kts
15-Jan-22 16:07 35.233180 -120.632003 204 215ft 0kts
15-Jan-22 16:08 35.233129 -120.633672 307 215ft 14kts
15-Jan-22 16:09 35.244963 -120.654552 301 830ft 110kts
15-Jan-22 16:10 35.225908 -120.667342 162 1095ft 108kts
15-Jan-22 16:11 35.199363 -120.652169 150 1317ft 104kts
15-Jan-22 16:12 35.175758 -120.634373 144 1646ft 98kts
15-Jan-22 16:13 35.149298 -120.630092 182 1860ft 102kts
15-Jan-22 16:14 35.121237 -120.629114 158 2095ft 101kts
15-Jan-22 16:15 35.094799 -120.617945 150 2292ft 102kts
15-Jan-22 16:16 35.068526 -120.600012 150 2299ft 111kts
15-Jan-22 16:17 35.041342 -120.581599 150 2298ft 112kts
15-Jan-22 16:18 35.013969 -120.563081 150 2299ft 112kts
15-Jan-22 16:19 34.986581 -120.544590 151 2298ft 112kts
15-Jan-22 16:20 34.958858 -120.525875 150 2298ft 114kts
15-Jan-22 16:21 34.936292 -120.502031 136 2232ft 90kts
15-Jan-22 16:22 34.923324 -120.475871 124 1417ft 93kts
15-Jan-22 16:23 34.906878 -120.451126 126 963ft 97kts
15-Jan-22 16:24 34.895825 -120.430407 147 954ft 61kts
15-Jan-22 16:25 34.890500 -120.443251 318 386ft 69kts
15-Jan-22 16:26 34.897990 -120.450272 352 264ft 0kts
15-Jan-22 16:27 34.898783 -120.450544 318 264ft 12kts
15-Jan-22 16:28 34.901464 -120.452866 54 264ft 9kts
15-Jan-22 16:29 34.901506 -120.452797 57 264ft 0kts
15-Jan-22 16:30 34.901506 -120.452797 57 264ft 0kts
15-Jan-22 16:31 34.901506 -120.452797 57 264ft 0kts
15-Jan-22 16:32 34.901506 -120.452797 57 264ft 0kts
15-Jan-22 16:33 34.901506 -120.452797 57 264ft 0kts
15-Jan-22 16:34 34.901506 -120.452797 57 264ft 0kts
15-Jan-22 16:35 34.901506 -120.452797 57 264ft 0kts
15-Jan-22 16:36 34.901506 -120.452797 57 264ft 0kts
15-Jan-22 16:37 34.901506 -120.452797 57 264ft 0kts
15-Jan-22 16:38 34.901506 -120.452797 57 264ft 0kts
15-Jan-22 16:39 34.901506 -120.452797 57 264ft 0kts
15-Jan-22 16:40 34.901506 -120.452797 57 264ft 0kts

Navigation Log

Ident Type
Flight plan parsing failed, navigation log unavailable